sensor_id;sensor_type;location;lat;lon;timestamp;temperature;humidity
31379;DHT22;61664;48.112;11.662;2023-11-21T00:00:17;10.80;82.80
31379;DHT22;61664;48.112;11.662;2023-11-21T00:02:44;10.70;82.50
31379;DHT22;61664;48.112;11.662;2023-11-21T00:05:14;10.70;83.50
31379;DHT22;61664;48.112;11.662;2023-11-21T00:07:42;10.60;83.90
31379;DHT22;61664;48.112;11.662;2023-11-21T00:10:10;10.60;84.70
31379;DHT22;61664;48.112;11.662;2023-11-21T00:12:38;10.60;84.70
31379;DHT22;61664;48.112;11.662;2023-11-21T00:15:09;10.50;84.70
31379;DHT22;61664;48.112;11.662;2023-11-21T00:17:38;10.50;85.20
31379;DHT22;61664;48.112;11.662;2023-11-21T00:20:06;10.50;84.90
31379;DHT22;61664;48.112;11.662;2023-11-21T00:22:35;10.50;84.80
31379;DHT22;61664;48.112;11.662;2023-11-21T00:25:02;10.40;85.00
31379;DHT22;61664;48.112;11.662;2023-11-21T00:27:30;10.40;85.10
31379;DHT22;61664;48.112;11.662;2023-11-21T00:29:57;10.40;85.20
31379;DHT22;61664;48.112;11.662;2023-11-21T00:32:24;10.30;85.40
31379;DHT22;61664;48.112;11.662;2023-11-21T00:34:51;10.30;85.70
31379;DHT22;61664;48.112;11.662;2023-11-21T00:37:18;10.20;85.90
31379;DHT22;61664;48.112;11.662;2023-11-21T00:39:45;10.20;86.30
31379;DHT22;61664;48.112;11.662;2023-11-21T00:42:12;10.10;86.60
31379;DHT22;61664;48.112;11.662;2023-11-21T00:44:39;10.20;86.90
31379;DHT22;61664;48.112;11.662;2023-11-21T00:47:06;10.20;87.00
31379;DHT22;61664;48.112;11.662;2023-11-21T00:49:34;10.20;87.00
31379;DHT22;61664;48.112;11.662;2023-11-21T00:52:01;10.20;87.00
31379;DHT22;61664;48.112;11.662;2023-11-21T00:54:29;10.20;87.50
31379;DHT22;61664;48.112;11.662;2023-11-21T00:56:59;10.20;87.80
31379;DHT22;61664;48.112;11.662;2023-11-21T00:59:26;10.30;87.90
31379;DHT22;61664;48.112;11.662;2023-11-21T01:01:53;10.30;88.30
31379;DHT22;61664;48.112;11.662;2023-11-21T01:04:20;10.30;88.20
31379;DHT22;61664;48.112;11.662;2023-11-21T01:06:47;10.30;87.90
31379;DHT22;61664;48.112;11.662;2023-11-21T01:09:15;10.40;88.00
31379;DHT22;61664;48.112;11.662;2023-11-21T01:11:45;10.40;87.60
31379;DHT22;61664;48.112;11.662;2023-11-21T01:14:12;10.40;87.60
31379;DHT22;61664;48.112;11.662;2023-11-21T01:16:40;10.40;87.60
31379;DHT22;61664;48.112;11.662;2023-11-21T01:19:10;10.40;87.60
31379;DHT22;61664;48.112;11.662;2023-11-21T01:21:37;10.40;87.30
31379;DHT22;61664;48.112;11.662;2023-11-21T01:24:04;10.40;87.40
31379;DHT22;61664;48.112;11.662;2023-11-21T01:26:34;10.40;87.30
31379;DHT22;61664;48.112;11.662;2023-11-21T01:29:03;10.40;87.30
31379;DHT22;61664;48.112;11.662;2023-11-21T01:31:31;10.40;87.30
31379;DHT22;61664;48.112;11.662;2023-11-21T01:33:58;10.40;87.50
31379;DHT22;61664;48.112;11.662;2023-11-21T01:36:30;10.50;87.60
31379;DHT22;61664;48.112;11.662;2023-11-21T01:39:02;10.50;86.80
31379;DHT22;61664;48.112;11.662;2023-11-21T01:41:34;10.40;87.90
31379;DHT22;61664;48.112;11.662;2023-11-21T01:44:01;10.40;87.80
31379;DHT22;61664;48.112;11.662;2023-11-21T01:46:29;10.40;87.60
31379;DHT22;61664;48.112;11.662;2023-11-21T01:48:57;10.40;87.60
31379;DHT22;61664;48.112;11.662;2023-11-21T01:51:24;10.40;87.80
31379;DHT22;61664;48.112;11.662;2023-11-21T01:53:51;10.40;87.40
31379;DHT22;61664;48.112;11.662;2023-11-21T01:56:18;10.40;87.40
31379;DHT22;61664;48.112;11.662;2023-11-21T01:58:46;10.40;87.30
31379;DHT22;61664;48.112;11.662;2023-11-21T02:01:13;10.40;87.40
31379;DHT22;61664;48.112;11.662;2023-11-21T02:03:41;10.40;87.70
31379;DHT22;61664;48.112;11.662;2023-11-21T02:06:08;10.30;87.50
31379;DHT22;61664;48.112;11.662;2023-11-21T02:08:38;10.40;87.20
31379;DHT22;61664;48.112;11.662;2023-11-21T02:11:06;10.30;87.60
31379;DHT22;61664;48.112;11.662;2023-11-21T02:13:33;10.40;88.00
31379;DHT22;61664;48.112;11.662;2023-11-21T02:16:00;10.40;87.70
31379;DHT22;61664;48.112;11.662;2023-11-21T02:18:27;10.30;87.90
31379;DHT22;61664;48.112;11.662;2023-11-21T02:20:56;10.40;88.20
31379;DHT22;61664;48.112;11.662;2023-11-21T02:23:23;10.40;88.00
31379;DHT22;61664;48.112;11.662;2023-11-21T02:25:55;10.50;88.00
31379;DHT22;61664;48.112;11.662;2023-11-21T02:28:22;10.50;87.70
31379;DHT22;61664;48.112;11.662;2023-11-21T02:30:53;10.50;87.70
31379;DHT22;61664;48.112;11.662;2023-11-21T02:33:22;10.50;87.50
31379;DHT22;61664;48.112;11.662;2023-11-21T02:35:49;10.60;87.30
31379;DHT22;61664;48.112;11.662;2023-11-21T02:38:21;10.60;87.10
31379;DHT22;61664;48.112;11.662;2023-11-21T02:40:48;10.60;86.90
31379;DHT22;61664;48.112;11.662;2023-11-21T02:43:16;10.50;86.60
31379;DHT22;61664;48.112;11.662;2023-11-21T02:45:43;10.50;86.80
31379;DHT22;61664;48.112;11.662;2023-11-21T02:48:10;10.60;86.50
31379;DHT22;61664;48.112;11.662;2023-11-21T02:50:37;10.50;86.10
31379;DHT22;61664;48.112;11.662;2023-11-21T02:53:04;10.50;86.10
31379;DHT22;61664;48.112;11.662;2023-11-21T02:55:34;10.50;86.20
31379;DHT22;61664;48.112;11.662;2023-11-21T02:58:02;10.40;85.50
31379;DHT22;61664;48.112;11.662;2023-11-21T03:00:30;10.30;85.40
31379;DHT22;61664;48.112;11.662;2023-11-21T03:02:57;10.20;85.60
31379;DHT22;61664;48.112;11.662;2023-11-21T03:05:24;10.10;86.30
31379;DHT22;61664;48.112;11.662;2023-11-21T03:07:51;10.10;86.60
31379;DHT22;61664;48.112;11.662;2023-11-21T03:10:18;10.00;86.80
31379;DHT22;61664;48.112;11.662;2023-11-21T03:12:46;9.90;87.30
31379;DHT22;61664;48.112;11.662;2023-11-21T03:15:12;9.80;87.80
31379;DHT22;61664;48.112;11.662;2023-11-21T03:17:40;9.70;88.10
31379;DHT22;61664;48.112;11.662;2023-11-21T03:20:07;9.80;88.60
31379;DHT22;61664;48.112;11.662;2023-11-21T03:22:38;9.70;89.20
31379;DHT22;61664;48.112;11.662;2023-11-21T03:25:06;9.70;89.90
31379;DHT22;61664;48.112;11.662;2023-11-21T03:27:37;9.70;89.70
31379;DHT22;61664;48.112;11.662;2023-11-21T03:30:07;9.60;89.70
31379;DHT22;61664;48.112;11.662;2023-11-21T03:32:35;9.60;89.80
31379;DHT22;61664;48.112;11.662;2023-11-21T03:35:03;9.70;90.00
31379;DHT22;61664;48.112;11.662;2023-11-21T03:37:30;9.50;90.00
31379;DHT22;61664;48.112;11.662;2023-11-21T03:39:57;9.50;90.40
31379;DHT22;61664;48.112;11.662;2023-11-21T03:42:24;9.50;90.50
31379;DHT22;61664;48.112;11.662;2023-11-21T03:44:54;9.50;90.60
31379;DHT22;61664;48.112;11.662;2023-11-21T03:47:21;9.50;90.70
31379;DHT22;61664;48.112;11.662;2023-11-21T03:49:48;9.50;90.90
31379;DHT22;61664;48.112;11.662;2023-11-21T03:52:16;9.50;91.00
31379;DHT22;61664;48.112;11.662;2023-11-21T03:54:43;9.60;91.10
31379;DHT22;61664;48.112;11.662;2023-11-21T03:57:11;9.50;90.90
31379;DHT22;61664;48.112;11.662;2023-11-21T03:59:42;9.60;91.00
31379;DHT22;61664;48.112;11.662;2023-11-21T04:02:09;9.60;90.80
31379;DHT22;61664;48.112;11.662;2023-11-21T04:04:37;9.60;91.00
31379;DHT22;61664;48.112;11.662;2023-11-21T04:07:04;9.60;90.90
31379;DHT22;61664;48.112;11.662;2023-11-21T04:09:31;9.70;91.10
31379;DHT22;61664;48.112;11.662;2023-11-21T04:11:58;9.60;91.20
31379;DHT22;61664;48.112;11.662;2023-11-21T04:14:26;9.70;91.20
31379;DHT22;61664;48.112;11.662;2023-11-21T04:16:53;9.60;91.20
31379;DHT22;61664;48.112;11.662;2023-11-21T04:19:23;9.70;91.10
31379;DHT22;61664;48.112;11.662;2023-11-21T04:21:50;9.70;91.00
31379;DHT22;61664;48.112;11.662;2023-11-21T04:24:17;9.70;91.10
31379;DHT22;61664;48.112;11.662;2023-11-21T04:26:45;9.70;91.20
31379;DHT22;61664;48.112;11.662;2023-11-21T04:29:12;9.70;91.20
31379;DHT22;61664;48.112;11.662;2023-11-21T04:31:39;9.70;91.20
31379;DHT22;61664;48.112;11.662;2023-11-21T04:34:06;9.70;91.20
31379;DHT22;61664;48.112;11.662;2023-11-21T04:36:33;9.80;91.30
31379;DHT22;61664;48.112;11.662;2023-11-21T04:39:00;9.80;91.10
31379;DHT22;61664;48.112;11.662;2023-11-21T04:41:27;9.80;91.10
31379;DHT22;61664;48.112;11.662;2023-11-21T04:43:57;9.80;91.00
31379;DHT22;61664;48.112;11.662;2023-11-21T04:46:25;9.80;90.90
31379;DHT22;61664;48.112;11.662;2023-11-21T04:48:52;9.80;90.80
31379;DHT22;61664;48.112;11.662;2023-11-21T04:51:19;9.80;90.60
31379;DHT22;61664;48.112;11.662;2023-11-21T04:53:46;9.80;90.60
31379;DHT22;61664;48.112;11.662;2023-11-21T04:56:13;9.80;90.40
31379;DHT22;61664;48.112;11.662;2023-11-21T04:58:40;9.80;90.50
31379;DHT22;61664;48.112;11.662;2023-11-21T05:01:09;9.70;90.70
31379;DHT22;61664;48.112;11.662;2023-11-21T05:03:36;9.70;90.50
31379;DHT22;61664;48.112;11.662;2023-11-21T05:06:05;9.70;90.60
31379;DHT22;61664;48.112;11.662;2023-11-21T05:08:33;9.70;90.60
31379;DHT22;61664;48.112;11.662;2023-11-21T05:11:00;9.70;90.40
31379;DHT22;61664;48.112;11.662;2023-11-21T05:13:27;9.70;90.40
31379;DHT22;61664;48.112;11.662;2023-11-21T05:15:55;9.70;90.30
31379;DHT22;61664;48.112;11.662;2023-11-21T05:18:24;9.70;90.20
31379;DHT22;61664;48.112;11.662;2023-11-21T05:20:53;9.60;90.50
31379;DHT22;61664;48.112;11.662;2023-11-21T05:23:20;9.70;90.30
31379;DHT22;61664;48.112;11.662;2023-11-21T05:25:47;9.60;90.40
31379;DHT22;61664;48.112;11.662;2023-11-21T05:28:14;9.60;90.40
31379;DHT22;61664;48.112;11.662;2023-11-21T05:30:41;9.60;90.40
31379;DHT22;61664;48.112;11.662;2023-11-21T05:33:08;9.60;90.40
31379;DHT22;61664;48.112;11.662;2023-11-21T05:35:35;9.70;90.50
31379;DHT22;61664;48.112;11.662;2023-11-21T05:38:02;9.70;90.40
31379;DHT22;61664;48.112;11.662;2023-11-21T05:40:30;9.70;90.40
31379;DHT22;61664;48.112;11.662;2023-11-21T05:42:57;9.70;90.40
31379;DHT22;61664;48.112;11.662;2023-11-21T05:45:24;9.70;90.50
31379;DHT22;61664;48.112;11.662;2023-11-21T05:47:51;9.70;90.40
31379;DHT22;61664;48.112;11.662;2023-11-21T05:50:18;9.70;90.40
31379;DHT22;61664;48.112;11.662;2023-11-21T05:52:46;9.70;90.30
31379;DHT22;61664;48.112;11.662;2023-11-21T05:55:14;9.70;90.30
31379;DHT22;61664;48.112;11.662;2023-11-21T05:57:42;9.80;90.30
31379;DHT22;61664;48.112;11.662;2023-11-21T06:00:12;9.80;90.20
31379;DHT22;61664;48.112;11.662;2023-11-21T06:02:44;9.80;90.20
31379;DHT22;61664;48.112;11.662;2023-11-21T06:05:12;9.80;90.20
31379;DHT22;61664;48.112;11.662;2023-11-21T06:07:39;9.80;90.10
31379;DHT22;61664;48.112;11.662;2023-11-21T06:10:07;9.90;90.20
31379;DHT22;61664;48.112;11.662;2023-11-21T06:12:38;9.80;90.20
31379;DHT22;61664;48.112;11.662;2023-11-21T06:15:07;9.90;90.20
31379;DHT22;61664;48.112;11.662;2023-11-21T06:17:36;9.90;90.20
31379;DHT22;61664;48.112;11.662;2023-11-21T06:20:04;9.90;90.20
31379;DHT22;61664;48.112;11.662;2023-11-21T06:22:42;9.90;90.10
31379;DHT22;61664;48.112;11.662;2023-11-21T06:25:11;9.90;89.80
31379;DHT22;61664;48.112;11.662;2023-11-21T06:27:49;9.90;89.70
31379;DHT22;61664;48.112;11.662;2023-11-21T06:30:18;9.90;88.40
31379;DHT22;61664;48.112;11.662;2023-11-21T06:32:47;9.90;89.70
31379;DHT22;61664;48.112;11.662;2023-11-21T06:35:15;9.90;89.70
31379;DHT22;61664;48.112;11.662;2023-11-21T06:37:44;10.00;90.00
31379;DHT22;61664;48.112;11.662;2023-11-21T06:40:16;9.90;90.10
31379;DHT22;61664;48.112;11.662;2023-11-21T06:42:45;9.90;90.00
31379;DHT22;61664;48.112;11.662;2023-11-21T06:45:13;9.90;90.00
31379;DHT22;61664;48.112;11.662;2023-11-21T06:47:41;9.90;90.00
31379;DHT22;61664;48.112;11.662;2023-11-21T06:50:09;9.90;90.10
31379;DHT22;61664;48.112;11.662;2023-11-21T06:52:36;9.90;90.10
31379;DHT22;61664;48.112;11.662;2023-11-21T06:55:03;9.90;90.10
31379;DHT22;61664;48.112;11.662;2023-11-21T06:57:31;9.90;90.10
31379;DHT22;61664;48.112;11.662;2023-11-21T06:59:59;9.90;90.10
31379;DHT22;61664;48.112;11.662;2023-11-21T07:02:26;9.90;90.20
31379;DHT22;61664;48.112;11.662;2023-11-21T07:04:54;9.90;90.20
31379;DHT22;61664;48.112;11.662;2023-11-21T07:07:22;9.90;90.30
31379;DHT22;61664;48.112;11.662;2023-11-21T07:09:52;10.00;90.40
31379;DHT22;61664;48.112;11.662;2023-11-21T07:12:19;10.00;90.60
31379;DHT22;61664;48.112;11.662;2023-11-21T07:14:45;10.00;90.40
31379;DHT22;61664;48.112;11.662;2023-11-21T07:17:13;10.10;90.40
31379;DHT22;61664;48.112;11.662;2023-11-21T07:19:40;10.00;90.30
31379;DHT22;61664;48.112;11.662;2023-11-21T07:22:08;10.10;90.30
31379;DHT22;61664;48.112;11.662;2023-11-21T07:24:36;10.10;90.40
31379;DHT22;61664;48.112;11.662;2023-11-21T07:27:03;10.10;90.40
31379;DHT22;61664;48.112;11.662;2023-11-21T07:29:30;10.10;90.40
31379;DHT22;61664;48.112;11.662;2023-11-21T07:31:58;10.20;90.40
31379;DHT22;61664;48.112;11.662;2023-11-21T07:34:25;10.20;90.50
31379;DHT22;61664;48.112;11.662;2023-11-21T07:36:52;10.20;90.40
31379;DHT22;61664;48.112;11.662;2023-11-21T07:39:19;10.20;90.60
31379;DHT22;61664;48.112;11.662;2023-11-21T07:41:46;10.20;90.60
31379;DHT22;61664;48.112;11.662;2023-11-21T07:44:18;10.30;90.70
31379;DHT22;61664;48.112;11.662;2023-11-21T07:46:47;10.30;90.20
31379;DHT22;61664;48.112;11.662;2023-11-21T07:49:17;10.40;90.70
31379;DHT22;61664;48.112;11.662;2023-11-21T07:51:47;10.30;90.60
31379;DHT22;61664;48.112;11.662;2023-11-21T07:54:15;10.40;90.50
31379;DHT22;61664;48.112;11.662;2023-11-21T07:56:42;10.40;90.40
31379;DHT22;61664;48.112;11.662;2023-11-21T07:59:10;10.50;90.30
31379;DHT22;61664;48.112;11.662;2023-11-21T08:01:40;10.50;90.30
31379;DHT22;61664;48.112;11.662;2023-11-21T08:04:10;10.50;90.50
31379;DHT22;61664;48.112;11.662;2023-11-21T08:06:37;10.50;90.30
31379;DHT22;61664;48.112;11.662;2023-11-21T08:09:04;10.50;90.30
31379;DHT22;61664;48.112;11.662;2023-11-21T08:11:31;10.60;90.40
31379;DHT22;61664;48.112;11.662;2023-11-21T08:13:59;10.60;90.30
31379;DHT22;61664;48.112;11.662;2023-11-21T08:16:26;10.50;90.30
31379;DHT22;61664;48.112;11.662;2023-11-21T08:18:54;10.60;90.30
31379;DHT22;61664;48.112;11.662;2023-11-21T08:21:21;10.60;90.40
31379;DHT22;61664;48.112;11.662;2023-11-21T08:23:50;10.70;90.40
31379;DHT22;61664;48.112;11.662;2023-11-21T08:26:21;10.70;90.30
31379;DHT22;61664;48.112;11.662;2023-11-21T08:28:49;10.70;90.20
31379;DHT22;61664;48.112;11.662;2023-11-21T08:31:24;10.80;90.30
31379;DHT22;61664;48.112;11.662;2023-11-21T08:33:52;10.80;89.10
31379;DHT22;61664;48.112;11.662;2023-11-21T08:36:22;10.80;90.10
31379;DHT22;61664;48.112;11.662;2023-11-21T08:38:52;10.90;90.00
31379;DHT22;61664;48.112;11.662;2023-11-21T08:41:19;10.80;89.70
31379;DHT22;61664;48.112;11.662;2023-11-21T08:43:52;10.80;89.70
31379;DHT22;61664;48.112;11.662;2023-11-21T08:46:20;10.80;88.80
31379;DHT22;61664;48.112;11.662;2023-11-21T08:48:47;10.80;89.40
31379;DHT22;61664;48.112;11.662;2023-11-21T08:51:15;10.80;89.30
31379;DHT22;61664;48.112;11.662;2023-11-21T08:53:43;10.80;89.20
31379;DHT22;61664;48.112;11.662;2023-11-21T08:56:13;10.90;89.10
31379;DHT22;61664;48.112;11.662;2023-11-21T08:58:41;10.80;88.20
31379;DHT22;61664;48.112;11.662;2023-11-21T09:01:08;10.80;88.80
31379;DHT22;61664;48.112;11.662;2023-11-21T09:03:35;10.80;88.90
31379;DHT22;61664;48.112;11.662;2023-11-21T09:06:02;10.80;89.40
31379;DHT22;61664;48.112;11.662;2023-11-21T09:08:30;10.90;90.10
31379;DHT22;61664;48.112;11.662;2023-11-21T09:10:57;10.90;90.50
31379;DHT22;61664;48.112;11.662;2023-11-21T09:13:24;11.00;90.50
31379;DHT22;61664;48.112;11.662;2023-11-21T09:15:52;11.10;90.60
31379;DHT22;61664;48.112;11.662;2023-11-21T09:18:19;11.20;90.90
31379;DHT22;61664;48.112;11.662;2023-11-21T09:20:46;11.40;90.80
31379;DHT22;61664;48.112;11.662;2023-11-21T09:23:13;11.40;90.50
31379;DHT22;61664;48.112;11.662;2023-11-21T09:25:40;11.50;90.30
31379;DHT22;61664;48.112;11.662;2023-11-21T09:28:07;11.60;90.10
31379;DHT22;61664;48.112;11.662;2023-11-21T09:30:35;11.60;90.10
31379;DHT22;61664;48.112;11.662;2023-11-21T09:33:03;11.60;90.20
31379;DHT22;61664;48.112;11.662;2023-11-21T09:35:32;11.70;90.10
31379;DHT22;61664;48.112;11.662;2023-11-21T09:37:59;11.70;89.80
31379;DHT22;61664;48.112;11.662;2023-11-21T09:40:28;11.70;89.90
31379;DHT22;61664;48.112;11.662;2023-11-21T09:42:58;11.70;90.00
31379;DHT22;61664;48.112;11.662;2023-11-21T09:45:31;11.70;89.60
31379;DHT22;61664;48.112;11.662;2023-11-21T09:48:01;11.70;89.50
31379;DHT22;61664;48.112;11.662;2023-11-21T09:50:29;11.80;90.00
31379;DHT22;61664;48.112;11.662;2023-11-21T09:55:50;11.80;87.60
31379;DHT22;61664;48.112;11.662;2023-11-21T09:58:20;11.90;89.60
31379;DHT22;61664;48.112;11.662;2023-11-21T10:00:50;11.90;89.00
31379;DHT22;61664;48.112;11.662;2023-11-21T10:03:20;12.00;88.70
31379;DHT22;61664;48.112;11.662;2023-11-21T10:05:50;11.90;88.60
31379;DHT22;61664;48.112;11.662;2023-11-21T10:08:17;11.90;88.80
31379;DHT22;61664;48.112;11.662;2023-11-21T10:10:49;11.90;89.20
31379;DHT22;61664;48.112;11.662;2023-11-21T10:13:20;12.00;88.40
31379;DHT22;61664;48.112;11.662;2023-11-21T10:15:51;12.00;89.40
31379;DHT22;61664;48.112;11.662;2023-11-21T10:18:20;12.00;88.10
31379;DHT22;61664;48.112;11.662;2023-11-21T10:20:50;12.20;89.60
31379;DHT22;61664;48.112;11.662;2023-11-21T10:23:20;12.10;88.90
31379;DHT22;61664;48.112;11.662;2023-11-21T10:25:53;12.20;86.30
31379;DHT22;61664;48.112;11.662;2023-11-21T10:28:24;12.20;88.50
31379;DHT22;61664;48.112;11.662;2023-11-21T10:30:51;12.20;88.30
31379;DHT22;61664;48.112;11.662;2023-11-21T10:33:27;12.20;88.60
31379;DHT22;61664;48.112;11.662;2023-11-21T10:35:59;12.20;86.00
31379;DHT22;61664;48.112;11.662;2023-11-21T10:38:28;12.20;89.10
31379;DHT22;61664;48.112;11.662;2023-11-21T10:40:57;12.20;89.50
31379;DHT22;61664;48.112;11.662;2023-11-21T10:43:27;12.30;89.90
31379;DHT22;61664;48.112;11.662;2023-11-21T10:45:57;12.30;88.60
31379;DHT22;61664;48.112;11.662;2023-11-21T10:48:26;12.40;89.00
31379;DHT22;61664;48.112;11.662;2023-11-21T10:51:13;12.40;90.20
31379;DHT22;61664;48.112;11.662;2023-11-21T10:53:40;12.50;89.70
31379;DHT22;61664;48.112;11.662;2023-11-21T10:56:13;12.60;89.00
31379;DHT22;61664;48.112;11.662;2023-11-21T10:58:46;12.60;88.30
31379;DHT22;61664;48.112;11.662;2023-11-21T11:01:21;12.60;89.20
31379;DHT22;61664;48.112;11.662;2023-11-21T11:03:56;12.60;88.70
31379;DHT22;61664;48.112;11.662;2023-11-21T11:06:24;12.60;87.90
31379;DHT22;61664;48.112;11.662;2023-11-21T11:08:53;12.60;87.70
31379;DHT22;61664;48.112;11.662;2023-11-21T11:11:21;12.60;87.70
31379;DHT22;61664;48.112;11.662;2023-11-21T11:13:48;12.60;87.50
31379;DHT22;61664;48.112;11.662;2023-11-21T11:16:16;12.60;87.30
31379;DHT22;61664;48.112;11.662;2023-11-21T11:18:44;12.50;87.60
31379;DHT22;61664;48.112;11.662;2023-11-21T11:21:27;12.50;88.30
31379;DHT22;61664;48.112;11.662;2023-11-21T11:27:54;12.60;83.90
31379;DHT22;61664;48.112;11.662;2023-11-21T11:33:58;12.60;83.40
31379;DHT22;61664;48.112;11.662;2023-11-21T11:37:00;12.60;85.70
31379;DHT22;61664;48.112;11.662;2023-11-21T11:39:38;12.50;82.60
31379;DHT22;61664;48.112;11.662;2023-11-21T11:42:12;12.50;84.90
31379;DHT22;61664;48.112;11.662;2023-11-21T11:47:28;12.50;88.50
31379;DHT22;61664;48.112;11.662;2023-11-21T11:50:08;12.60;87.30
31379;DHT22;61664;48.112;11.662;2023-11-21T11:52:47;12.60;85.70
31379;DHT22;61664;48.112;11.662;2023-11-21T11:55:17;12.60;88.40
31379;DHT22;61664;48.112;11.662;2023-11-21T12:02:58;12.70;88.20
31379;DHT22;61664;48.112;11.662;2023-11-21T12:05:30;12.60;86.20
31379;DHT22;61664;48.112;11.662;2023-11-21T12:08:11;12.70;87.60
31379;DHT22;61664;48.112;11.662;2023-11-21T12:10:39;12.70;87.60
31379;DHT22;61664;48.112;11.662;2023-11-21T12:13:08;12.60;87.00
31379;DHT22;61664;48.112;11.662;2023-11-21T12:15:37;12.60;87.00
31379;DHT22;61664;48.112;11.662;2023-11-21T12:18:06;12.60;87.70
31379;DHT22;61664;48.112;11.662;2023-11-21T12:20:34;12.60;87.70
31379;DHT22;61664;48.112;11.662;2023-11-21T12:23:07;12.60;87.80
31379;DHT22;61664;48.112;11.662;2023-11-21T12:25:36;12.60;87.80
31379;DHT22;61664;48.112;11.662;2023-11-21T12:28:04;12.60;87.70
31379;DHT22;61664;48.112;11.662;2023-11-21T12:30:34;12.60;87.40
31379;DHT22;61664;48.112;11.662;2023-11-21T12:33:04;12.60;87.10
31379;DHT22;61664;48.112;11.662;2023-11-21T12:35:34;12.60;87.80
31379;DHT22;61664;48.112;11.662;2023-11-21T12:38:03;12.60;87.60
31379;DHT22;61664;48.112;11.662;2023-11-21T12:40:31;12.60;87.80
31379;DHT22;61664;48.112;11.662;2023-11-21T12:43:00;12.60;88.50
31379;DHT22;61664;48.112;11.662;2023-11-21T12:45:29;12.70;88.40
31379;DHT22;61664;48.112;11.662;2023-11-21T12:48:00;12.70;88.30
31379;DHT22;61664;48.112;11.662;2023-11-21T12:50:31;12.70;87.40
31379;DHT22;61664;48.112;11.662;2023-11-21T12:53:02;12.70;87.90
31379;DHT22;61664;48.112;11.662;2023-11-21T12:55:32;12.70;88.30
31379;DHT22;61664;48.112;11.662;2023-11-21T12:58:07;12.80;89.00
31379;DHT22;61664;48.112;11.662;2023-11-21T13:00:46;12.80;88.40
31379;DHT22;61664;48.112;11.662;2023-11-21T13:03:15;12.80;88.70
31379;DHT22;61664;48.112;11.662;2023-11-21T13:05:47;12.90;88.90
31379;DHT22;61664;48.112;11.662;2023-11-21T13:08:19;12.90;88.80
31379;DHT22;61664;48.112;11.662;2023-11-21T13:10:54;13.00;89.50
31379;DHT22;61664;48.112;11.662;2023-11-21T13:13:24;13.00;88.80
31379;DHT22;61664;48.112;11.662;2023-11-21T13:15:55;13.10;88.70
31379;DHT22;61664;48.112;11.662;2023-11-21T13:18:32;13.10;86.10
31379;DHT22;61664;48.112;11.662;2023-11-21T13:21:02;13.10;85.40
31379;DHT22;61664;48.112;11.662;2023-11-21T13:23:36;13.00;82.90
31379;DHT22;61664;48.112;11.662;2023-11-21T13:26:04;12.80;78.50
31379;DHT22;61664;48.112;11.662;2023-11-21T13:28:33;12.50;76.90
31379;DHT22;61664;48.112;11.662;2023-11-21T13:31:03;12.20;78.50
31379;DHT22;61664;48.112;11.662;2023-11-21T13:33:38;11.80;79.90
31379;DHT22;61664;48.112;11.662;2023-11-21T13:36:06;11.50;81.50
31379;DHT22;61664;48.112;11.662;2023-11-21T13:38:38;11.30;83.10
31379;DHT22;61664;48.112;11.662;2023-11-21T13:41:10;11.10;84.50
31379;DHT22;61664;48.112;11.662;2023-11-21T13:43:41;11.00;85.70
31379;DHT22;61664;48.112;11.662;2023-11-21T13:46:10;10.80;86.90
31379;DHT22;61664;48.112;11.662;2023-11-21T13:48:43;10.70;88.80
31379;DHT22;61664;48.112;11.662;2023-11-21T13:51:17;10.80;90.30
31379;DHT22;61664;48.112;11.662;2023-11-21T13:53:45;10.70;90.60
31379;DHT22;61664;48.112;11.662;2023-11-21T13:56:16;10.80;90.90
31379;DHT22;61664;48.112;11.662;2023-11-21T13:58:48;10.80;91.40
31379;DHT22;61664;48.112;11.662;2023-11-21T14:01:23;10.80;91.60
31379;DHT22;61664;48.112;11.662;2023-11-21T14:04:33;10.80;91.60
31379;DHT22;61664;48.112;11.662;2023-11-21T14:07:16;10.90;91.50
31379;DHT22;61664;48.112;11.662;2023-11-21T14:09:57;10.90;91.60
31379;DHT22;61664;48.112;11.662;2023-11-21T14:12:25;10.90;91.90
31379;DHT22;61664;48.112;11.662;2023-11-21T14:14:52;10.90;92.00
31379;DHT22;61664;48.112;11.662;2023-11-21T14:17:18;11.00;92.20
31379;DHT22;61664;48.112;11.662;2023-11-21T14:19:51;11.00;92.20
31379;DHT22;61664;48.112;11.662;2023-11-21T14:22:21;11.00;92.20
31379;DHT22;61664;48.112;11.662;2023-11-21T14:24:48;11.10;92.30
31379;DHT22;61664;48.112;11.662;2023-11-21T14:27:17;11.10;92.40
31379;DHT22;61664;48.112;11.662;2023-11-21T14:29:43;11.20;92.40
31379;DHT22;61664;48.112;11.662;2023-11-21T14:32:11;11.20;91.80
31379;DHT22;61664;48.112;11.662;2023-11-21T14:34:40;11.20;91.50
31379;DHT22;61664;48.112;11.662;2023-11-21T14:37:09;11.20;91.30
31379;DHT22;61664;48.112;11.662;2023-11-21T14:39:40;11.10;90.90
31379;DHT22;61664;48.112;11.662;2023-11-21T14:42:11;11.00;90.80
31379;DHT22;61664;48.112;11.662;2023-11-21T14:44:41;11.00;90.90
31379;DHT22;61664;48.112;11.662;2023-11-21T14:47:09;11.00;90.70
31379;DHT22;61664;48.112;11.662;2023-11-21T14:49:46;10.90;90.70
31379;DHT22;61664;48.112;11.662;2023-11-21T14:52:20;10.90;91.00
31379;DHT22;61664;48.112;11.662;2023-11-21T14:55:03;10.80;91.30
31379;DHT22;61664;48.112;11.662;2023-11-21T14:57:50;10.80;91.40
31379;DHT22;61664;48.112;11.662;2023-11-21T15:00:18;10.70;91.00
31379;DHT22;61664;48.112;11.662;2023-11-21T15:02:59;10.70;91.00
31379;DHT22;61664;48.112;11.662;2023-11-21T15:05:27;10.70;91.00
31379;DHT22;61664;48.112;11.662;2023-11-21T15:07:55;10.60;90.90
31379;DHT22;61664;48.112;11.662;2023-11-21T15:10:24;10.60;91.20
31379;DHT22;61664;48.112;11.662;2023-11-21T15:13:06;10.60;91.40
31379;DHT22;61664;48.112;11.662;2023-11-21T15:15:37;10.50;91.60
31379;DHT22;61664;48.112;11.662;2023-11-21T15:18:05;10.50;91.90
31379;DHT22;61664;48.112;11.662;2023-11-21T15:20:33;10.60;92.00
31379;DHT22;61664;48.112;11.662;2023-11-21T15:23:00;10.50;92.10
31379;DHT22;61664;48.112;11.662;2023-11-21T15:25:29;10.50;92.20
31379;DHT22;61664;48.112;11.662;2023-11-21T15:27:56;10.60;92.10
31379;DHT22;61664;48.112;11.662;2023-11-21T15:30:23;10.60;92.10
31379;DHT22;61664;48.112;11.662;2023-11-21T15:32:52;10.50;92.10
31379;DHT22;61664;48.112;11.662;2023-11-21T15:35:20;10.50;92.10
31379;DHT22;61664;48.112;11.662;2023-11-21T15:37:47;10.60;92.10
31379;DHT22;61664;48.112;11.662;2023-11-21T15:40:14;10.60;92.20
31379;DHT22;61664;48.112;11.662;2023-11-21T15:42:43;10.60;92.40
31379;DHT22;61664;48.112;11.662;2023-11-21T15:45:12;10.60;92.50
31379;DHT22;61664;48.112;11.662;2023-11-21T15:47:39;10.60;92.60
31379;DHT22;61664;48.112;11.662;2023-11-21T15:50:07;10.60;92.70